createdAt,value
2022-07-25T00:00:59.237Z,3.83
2022-07-25T00:03:28.558Z,4.18
2022-07-25T00:05:55.607Z,3.30
2022-07-25T00:08:22.623Z,3.65
2022-07-25T00:10:49.620Z,3.80
2022-07-25T00:13:16.591Z,3.85
2022-07-25T00:15:43.728Z,3.88
2022-07-25T00:18:10.753Z,3.45
2022-07-25T00:20:37.710Z,3.40
2022-07-25T00:23:04.721Z,3.40
2022-07-25T00:25:33.044Z,3.50
2022-07-25T00:28:00.092Z,3.55
2022-07-25T00:30:27.314Z,3.05
2022-07-25T00:32:54.265Z,3.40
2022-07-25T00:35:21.247Z,4.03
2022-07-25T00:37:48.253Z,3.42
2022-07-25T00:40:15.898Z,4.20
2022-07-25T00:42:42.881Z,4.50
2022-07-25T00:45:10.848Z,3.15
2022-07-25T00:47:37.793Z,4.28
2022-07-25T00:50:06.913Z,3.63
2022-07-25T00:52:35.077Z,3.85
2022-07-25T00:55:02.232Z,3.80
2022-07-25T00:57:29.188Z,4.20
2022-07-25T00:59:56.196Z,3.88
2022-07-25T01:02:23.509Z,3.72
2022-07-25T01:04:50.650Z,3.72
2022-07-25T01:07:18.248Z,4.28
2022-07-25T01:09:45.365Z,3.80
2022-07-25T01:12:12.517Z,3.42
2022-07-25T01:14:39.592Z,3.83
2022-07-25T01:17:06.606Z,3.97
2022-07-25T01:19:33.652Z,4.07
2022-07-25T01:22:00.836Z,4.25
2022-07-25T01:24:29.073Z,4.28
2022-07-25T01:26:56.094Z,4.35
2022-07-25T01:29:23.080Z,4.10
2022-07-25T01:31:50.096Z,4.20
2022-07-25T01:34:17.058Z,4.40
2022-07-25T01:36:44.079Z,4.18
2022-07-25T01:39:11.169Z,4.40
2022-07-25T01:41:38.142Z,3.55
2022-07-25T01:44:05.486Z,3.78
2022-07-25T01:46:32.751Z,4.35
2022-07-25T01:48:59.963Z,4.03
2022-07-25T01:51:27.009Z,4.30
2022-07-25T01:53:53.922Z,3.88
2022-07-25T01:56:20.884Z,4.60
2022-07-25T01:58:49.477Z,3.70
2022-07-25T02:01:16.599Z,3.95
2022-07-25T02:03:46.308Z,4.03
2022-07-25T02:06:13.492Z,3.95
2022-07-25T02:08:40.464Z,4.20
2022-07-25T02:11:07.445Z,4.53
2022-07-25T02:13:34.587Z,4.63
2022-07-25T02:16:01.654Z,3.70
2022-07-25T02:18:28.586Z,4.15
2022-07-25T02:20:55.570Z,4.28
2022-07-25T02:23:22.548Z,3.55
2022-07-25T02:25:49.511Z,4.53
2022-07-25T02:28:16.469Z,3.97
2022-07-25T02:30:43.659Z,4.40
2022-07-25T02:33:10.714Z,4.43
2022-07-25T02:35:37.873Z,4.65
2022-07-25T02:38:04.817Z,4.05
2022-07-25T02:40:31.791Z,3.42
2022-07-25T02:42:58.730Z,4.05
2022-07-25T02:45:25.982Z,4.47
2022-07-25T02:47:52.970Z,4.00
2022-07-25T02:50:20.006Z,4.15
2022-07-25T02:52:47.044Z,3.40
2022-07-25T02:55:14.188Z,4.07
2022-07-25T02:57:41.299Z,4.28
2022-07-25T03:00:09.167Z,4.10
2022-07-25T03:02:36.217Z,3.92
2022-07-25T03:05:07.012Z,3.95
2022-07-25T03:07:34.345Z,4.03
2022-07-25T03:10:01.800Z,4.15
2022-07-25T03:12:36.223Z,4.10
2022-07-25T03:15:06.385Z,5.03
2022-07-25T03:17:33.367Z,3.92
2022-07-25T03:20:00.309Z,3.88
2022-07-25T03:22:27.507Z,4.45
2022-07-25T03:24:54.678Z,4.30
2022-07-25T03:27:21.699Z,4.22
2022-07-25T03:29:48.694Z,3.88
2022-07-25T03:32:15.763Z,4.53
2022-07-25T03:34:43.633Z,4.22
2022-07-25T03:37:10.591Z,3.67
2022-07-25T03:39:37.881Z,3.72
2022-07-25T03:42:04.879Z,4.32
2022-07-25T03:44:34.529Z,3.90
2022-07-25T03:47:01.481Z,3.95
2022-07-25T03:49:28.613Z,4.78
2022-07-25T03:51:55.633Z,3.83
2022-07-25T03:54:22.787Z,4.57
2022-07-25T03:56:53.057Z,4.45
2022-07-25T03:59:21.526Z,4.07
2022-07-25T04:01:50.468Z,4.10
2022-07-25T04:04:19.615Z,4.65
2022-07-25T04:06:47.086Z,4.38
2022-07-25T04:09:15.797Z,4.00
2022-07-25T04:11:43.213Z,4.43
2022-07-25T04:14:10.697Z,3.58
2022-07-25T04:16:38.140Z,4.22
2022-07-25T04:19:26.162Z,4.07
2022-07-25T04:21:55.327Z,3.90
2022-07-25T04:24:22.285Z,4.13
2022-07-25T04:26:49.414Z,3.88
2022-07-25T04:29:16.480Z,4.20
2022-07-25T04:31:43.582Z,4.00
2022-07-25T04:34:10.655Z,4.30
2022-07-25T04:36:37.594Z,4.57
2022-07-25T04:39:04.758Z,4.05
2022-07-25T04:41:31.715Z,4.25
2022-07-25T04:43:58.694Z,4.85
2022-07-25T04:46:25.609Z,4.15
2022-07-25T04:48:53.024Z,4.93
2022-07-25T04:51:20.036Z,4.63
2022-07-25T04:53:47.203Z,4.60
2022-07-25T04:56:14.393Z,4.15
2022-07-25T04:58:41.424Z,4.65
2022-07-25T05:01:08.444Z,4.93
2022-07-25T05:03:35.562Z,4.03
2022-07-25T05:06:02.726Z,4.28
2022-07-25T05:08:30.132Z,4.90
2022-07-25T05:10:57.091Z,5.00
2022-07-25T05:13:24.076Z,4.55
2022-07-25T05:15:51.282Z,5.78
2022-07-25T05:18:18.247Z,5.53
2022-07-25T05:20:45.201Z,5.47
2022-07-25T05:23:12.223Z,5.03
2022-07-25T05:25:39.483Z,4.85
2022-07-25T05:28:06.437Z,5.30
2022-07-25T05:30:39.333Z,4.70
2022-07-25T05:33:07.087Z,5.43
2022-07-25T05:35:34.073Z,4.15
2022-07-25T05:38:01.113Z,4.68
2022-07-25T05:40:28.294Z,4.32
2022-07-25T05:42:58.318Z,4.68
2022-07-25T05:45:29.528Z,4.75
2022-07-25T05:47:56.520Z,4.97
2022-07-25T05:50:23.568Z,5.35
2022-07-25T05:52:50.942Z,6.05
2022-07-25T05:55:18.049Z,6.32
2022-07-25T05:57:45.180Z,6.20
2022-07-25T06:00:12.769Z,6.00
2022-07-25T06:02:41.116Z,5.47
2022-07-25T06:05:08.765Z,5.57
2022-07-25T06:07:35.713Z,5.47
2022-07-25T06:10:03.372Z,5.20
2022-07-25T06:12:30.539Z,5.30
2022-07-25T06:14:57.563Z,7.53
2022-07-25T06:17:32.215Z,4.32
2022-07-25T06:19:59.585Z,5.07
2022-07-25T06:22:26.569Z,4.93
2022-07-25T06:24:53.558Z,4.43
2022-07-25T06:27:22.350Z,4.80
2022-07-25T06:32:19.162Z,4.20
2022-07-25T06:34:46.139Z,4.47
2022-07-25T06:37:13.121Z,4.82
2022-07-25T06:39:43.846Z,4.63
2022-07-25T06:42:12.559Z,5.28
2022-07-25T06:44:39.549Z,4.68
2022-07-25T06:47:10.557Z,4.72
2022-07-25T06:49:37.766Z,5.03
2022-07-25T06:52:06.293Z,5.10
2022-07-25T06:54:33.604Z,5.20
2022-07-25T06:57:01.013Z,4.88
2022-07-25T06:59:37.695Z,4.70
2022-07-25T07:02:04.857Z,4.88
2022-07-25T07:04:32.014Z,4.60
2022-07-25T07:06:59.185Z,5.13
2022-07-25T07:09:26.142Z,4.38
2022-07-25T07:11:53.257Z,5.30
2022-07-25T07:14:20.602Z,4.47
2022-07-25T07:16:47.786Z,4.68
2022-07-25T07:19:15.043Z,4.35
2022-07-25T07:21:42.868Z,4.07
2022-07-25T07:24:24.013Z,4.35
2022-07-25T07:26:53.546Z,4.68
2022-07-25T07:29:20.695Z,5.28
2022-07-25T07:31:47.795Z,4.47
2022-07-25T07:34:16.600Z,4.22
2022-07-25T07:36:43.933Z,4.95
2022-07-25T07:39:11.171Z,4.88
2022-07-25T07:41:38.467Z,4.03
2022-07-25T07:44:06.191Z,3.53
2022-07-25T07:46:33.285Z,4.47
2022-07-25T07:49:00.440Z,5.00
2022-07-25T07:51:27.751Z,4.25
2022-07-25T07:54:13.903Z,5.15
2022-07-25T07:56:41.940Z,4.80
2022-07-25T07:59:09.189Z,4.22
2022-07-25T08:01:36.517Z,4.35
2022-07-25T08:04:03.721Z,4.38
2022-07-25T08:06:30.878Z,4.10
2022-07-25T08:08:57.791Z,4.35
2022-07-25T08:11:26.308Z,4.38
2022-07-25T08:13:53.798Z,5.00
2022-07-25T08:16:20.846Z,3.78
2022-07-25T08:18:47.888Z,4.43
2022-07-25T08:21:14.828Z,4.03
2022-07-25T08:23:42.057Z,4.30
2022-07-25T08:26:09.077Z,4.20
2022-07-25T08:28:36.290Z,4.32
2022-07-25T08:31:03.401Z,4.20
2022-07-25T08:33:30.826Z,4.13
2022-07-25T08:35:59.058Z,4.85
2022-07-25T08:38:28.422Z,4.25
2022-07-25T08:40:57.232Z,3.85
2022-07-25T08:43:24.529Z,4.07
2022-07-25T08:45:54.215Z,3.75
2022-07-25T08:48:25.318Z,4.10
2022-07-25T08:53:37.172Z,4.50
2022-07-25T08:56:20.445Z,4.40
2022-07-25T08:58:48.161Z,4.22
2022-07-25T09:01:15.204Z,4.82
2022-07-25T09:03:43.765Z,4.65
2022-07-25T09:06:17.504Z,4.75
2022-07-25T09:09:01.304Z,4.32
2022-07-25T09:11:29.864Z,4.57
2022-07-25T09:14:10.809Z,4.75
2022-07-25T09:16:44.265Z,4.20
2022-07-25T09:22:10.138Z,4.13
2022-07-25T09:24:44.901Z,4.00
2022-07-25T09:27:12.819Z,4.18
2022-07-25T09:29:42.630Z,4.30
2022-07-25T09:32:22.942Z,4.35
2022-07-25T09:34:50.981Z,4.50
2022-07-25T09:37:24.336Z,4.20
2022-07-25T09:39:52.339Z,3.72
2022-07-25T09:42:32.549Z,3.95
2022-07-25T09:45:06.552Z,3.20
2022-07-25T09:47:36.608Z,3.83
2022-07-25T09:50:05.911Z,4.28
2022-07-25T09:52:33.740Z,4.15
2022-07-25T09:55:04.614Z,4.28
2022-07-25T09:57:31.666Z,4.20
2022-07-25T10:00:01.087Z,3.70
2022-07-25T10:02:45.706Z,4.15
2022-07-25T10:05:19.378Z,3.72
2022-07-25T10:07:49.867Z,4.03
2022-07-25T10:10:37.971Z,3.70
2022-07-25T10:13:18.173Z,4.45
2022-07-25T10:15:51.562Z,4.30
2022-07-25T10:18:22.125Z,4.85
2022-07-25T10:20:52.279Z,4.32
2022-07-25T10:23:28.033Z,4.25
2022-07-25T10:26:13.824Z,5.00
2022-07-25T10:28:45.137Z,4.03
2022-07-25T10:34:10.073Z,4.10
2022-07-25T10:36:51.409Z,4.30
2022-07-25T10:39:21.321Z,3.42
2022-07-25T10:42:16.464Z,5.07
2022-07-25T10:44:48.824Z,4.53
2022-07-25T10:47:17.848Z,4.38
2022-07-25T10:50:13.825Z,4.20
2022-07-25T10:55:09.076Z,3.58
2022-07-25T10:57:45.163Z,3.35
2022-07-25T11:00:22.159Z,3.50
2022-07-25T11:02:50.428Z,4.30
2022-07-25T11:05:17.493Z,3.30
2022-07-25T11:08:18.944Z,3.75
2022-07-25T11:10:40.151Z,3.55
2022-07-25T11:13:14.870Z,4.13
2022-07-25T11:15:42.983Z,3.83
2022-07-25T11:18:10.016Z,3.88
2022-07-25T11:20:37.416Z,3.45
2022-07-25T11:23:04.817Z,3.30
2022-07-25T11:25:31.911Z,3.45
2022-07-25T11:28:01.266Z,3.75
2022-07-25T11:30:29.661Z,3.83
2022-07-25T11:33:01.346Z,3.60
2022-07-25T11:35:31.660Z,4.10
2022-07-25T11:38:03.341Z,3.95
2022-07-25T11:40:32.549Z,3.58
2022-07-25T11:42:59.805Z,3.70
2022-07-25T11:45:31.055Z,3.42
2022-07-25T11:48:14.207Z,3.63
2022-07-25T11:50:45.385Z,3.75
2022-07-25T11:53:16.499Z,3.95
2022-07-25T11:58:13.468Z,3.53
2022-07-25T12:00:45.415Z,3.20
2022-07-25T12:03:19.495Z,3.72
2022-07-25T12:05:47.933Z,4.15
2022-07-25T12:08:18.690Z,3.17
2022-07-25T12:10:47.630Z,3.60
2022-07-25T12:13:27.331Z,3.67
2022-07-25T12:15:56.795Z,4.07
2022-07-25T12:18:24.287Z,2.90
2022-07-25T12:20:51.392Z,3.65
2022-07-25T12:23:18.772Z,3.53
2022-07-25T12:25:47.215Z,3.67
2022-07-25T12:28:14.910Z,3.40
2022-07-25T12:30:44.337Z,3.38
2022-07-25T12:33:11.951Z,3.42
2022-07-25T12:35:41.722Z,2.85
2022-07-25T12:38:09.271Z,3.45
2022-07-25T12:40:36.268Z,3.42
2022-07-25T12:43:05.587Z,3.53
2022-07-25T12:45:32.933Z,3.40
2022-07-25T12:47:59.979Z,3.60
2022-07-25T12:50:27.015Z,2.60
2022-07-25T12:52:54.437Z,3.45
2022-07-25T12:55:21.982Z,3.30
2022-07-25T12:57:49.881Z,3.17
2022-07-25T13:00:21.054Z,3.03
2022-07-25T13:02:51.978Z,2.80
2022-07-25T13:05:20.343Z,3.22
2022-07-25T13:07:49.232Z,3.28
2022-07-25T13:10:17.431Z,3.60
2022-07-25T13:12:44.939Z,3.58
2022-07-25T13:15:11.895Z,3.63
2022-07-25T13:17:40.404Z,3.17
2022-07-25T13:20:08.701Z,3.17
2022-07-25T13:22:35.753Z,3.13
2022-07-25T13:25:03.002Z,3.33
2022-07-25T13:27:30.046Z,3.25
2022-07-25T13:29:57.889Z,2.97
2022-07-25T13:32:26.740Z,3.15
2022-07-25T13:34:53.921Z,3.15
2022-07-25T13:37:21.044Z,3.13
2022-07-25T13:39:48.286Z,3.15
2022-07-25T13:42:15.296Z,3.83
2022-07-25T13:44:42.651Z,3.25
2022-07-25T13:47:09.620Z,3.05
2022-07-25T13:49:37.038Z,2.95
2022-07-25T13:52:04.629Z,3.13
2022-07-25T13:54:31.810Z,3.55
2022-07-25T13:56:58.963Z,3.70
2022-07-25T13:59:25.949Z,3.83
2022-07-25T14:01:52.990Z,3.60
2022-07-25T14:04:20.040Z,3.28
2022-07-25T14:06:51.751Z,3.05
2022-07-25T14:09:22.127Z,3.15
2022-07-25T14:11:49.676Z,3.63
2022-07-25T14:14:20.830Z,3.50
2022-07-25T14:16:48.930Z,3.80
2022-07-25T14:19:16.905Z,4.30
2022-07-25T14:21:43.908Z,4.28
2022-07-25T14:24:10.848Z,3.72
2022-07-25T14:26:38.254Z,3.42
2022-07-25T14:29:09.204Z,3.90
2022-07-25T14:31:37.679Z,3.00
2022-07-25T14:34:04.699Z,2.75
2022-07-25T14:36:31.628Z,3.33
2022-07-25T14:38:58.824Z,3.60
2022-07-25T14:41:25.930Z,4.20
2022-07-25T14:43:52.881Z,3.65
2022-07-25T14:46:20.458Z,2.92
2022-07-25T14:48:47.947Z,3.63
2022-07-25T14:51:14.948Z,3.42
2022-07-25T14:53:42.026Z,4.15
2022-07-25T14:56:09.080Z,4.25
2022-07-25T14:58:36.333Z,3.40
2022-07-25T15:01:03.391Z,3.50
2022-07-25T15:03:30.573Z,3.88
2022-07-25T15:05:57.879Z,2.80
2022-07-25T15:08:24.921Z,3.00
2022-07-25T15:10:52.018Z,3.72
2022-07-25T15:13:34.436Z,3.85
2022-07-25T15:16:03.783Z,3.90
2022-07-25T15:18:31.726Z,2.53
2022-07-25T15:20:58.762Z,3.95
2022-07-25T15:23:29.716Z,3.42
2022-07-25T15:26:01.722Z,3.17
2022-07-25T15:28:30.339Z,3.15
2022-07-25T15:30:57.329Z,3.22
2022-07-25T15:33:24.432Z,3.45
2022-07-25T15:35:51.824Z,3.40
2022-07-25T15:38:20.108Z,3.53
2022-07-25T15:40:48.506Z,3.50
2022-07-25T15:43:15.708Z,3.08
2022-07-25T15:45:45.958Z,2.97
2022-07-25T15:48:14.851Z,3.38
2022-07-25T15:50:47.951Z,2.85
2022-07-25T15:53:15.651Z,2.60
2022-07-25T15:55:43.028Z,3.15
2022-07-25T15:58:12.109Z,3.03
2022-07-25T16:00:40.443Z,2.90
2022-07-25T16:03:08.263Z,3.78
2022-07-25T16:05:36.532Z,3.35
2022-07-25T16:08:04.468Z,3.30
2022-07-25T16:10:43.935Z,3.38
2022-07-25T16:13:11.070Z,3.17
2022-07-25T16:15:38.893Z,3.70
2022-07-25T16:18:06.613Z,3.80
2022-07-25T16:20:34.132Z,3.28
2022-07-25T16:23:01.547Z,3.60
2022-07-25T16:25:29.986Z,3.40
2022-07-25T16:27:57.204Z,4.10
2022-07-25T16:30:24.775Z,3.35
2022-07-25T16:32:51.833Z,3.30
2022-07-25T16:35:19.288Z,3.08
2022-07-25T16:37:46.413Z,3.83
2022-07-25T16:40:14.617Z,2.95
2022-07-25T16:42:49.411Z,3.50
2022-07-25T16:45:16.620Z,3.33
2022-07-25T16:47:44.321Z,2.88
2022-07-25T16:50:20.056Z,3.13
2022-07-25T16:52:47.174Z,3.28
2022-07-25T16:55:14.556Z,3.45
2022-07-25T16:57:41.712Z,3.67
2022-07-25T17:00:10.877Z,3.30
2022-07-25T17:02:45.432Z,3.10
2022-07-25T17:05:12.935Z,3.22
2022-07-25T17:07:40.378Z,3.17
2022-07-25T17:10:08.527Z,3.22
2022-07-25T17:12:36.201Z,3.13
2022-07-25T17:15:03.879Z,2.83
2022-07-25T17:17:31.715Z,3.65
2022-07-25T17:20:00.194Z,3.30
2022-07-25T17:22:27.429Z,3.42
2022-07-25T17:24:54.496Z,2.38
2022-07-25T17:27:21.627Z,3.20
2022-07-25T17:29:48.562Z,2.28
2022-07-25T17:32:15.588Z,3.50
2022-07-25T17:34:42.565Z,2.80
2022-07-25T17:37:13.333Z,3.35
2022-07-25T17:39:40.819Z,2.70
2022-07-25T17:42:08.032Z,2.63
2022-07-25T17:44:35.647Z,2.65
2022-07-25T17:47:03.488Z,2.65
2022-07-25T17:49:30.854Z,2.65
2022-07-25T17:51:57.945Z,3.40
2022-07-25T17:54:25.023Z,2.45
2022-07-25T17:56:52.109Z,2.53
2022-07-25T17:59:19.175Z,2.80
2022-07-25T18:01:46.275Z,3.50
2022-07-25T18:04:14.304Z,3.47
2022-07-25T18:06:41.362Z,2.88
2022-07-25T18:09:08.744Z,2.15
2022-07-25T18:11:35.820Z,2.88
2022-07-25T18:14:02.762Z,3.42
2022-07-25T18:16:29.916Z,2.35
2022-07-25T18:18:57.044Z,2.78
2022-07-25T18:21:24.934Z,3.75
2022-07-25T18:23:52.493Z,2.58
2022-07-25T18:26:20.519Z,2.92
2022-07-25T18:28:47.968Z,3.28
2022-07-25T18:31:15.295Z,2.55
2022-07-25T18:33:42.345Z,2.90
2022-07-25T18:36:09.392Z,2.40
2022-07-25T18:38:36.911Z,2.70
2022-07-25T18:41:27.939Z,2.60
2022-07-25T18:43:53.107Z,2.92
2022-07-25T18:46:20.419Z,2.88
2022-07-25T18:48:47.872Z,2.40
2022-07-25T18:51:15.247Z,2.50
2022-07-25T18:53:47.442Z,2.88
2022-07-25T18:56:15.711Z,1.80
2022-07-25T18:58:42.986Z,1.98
2022-07-25T19:01:10.198Z,2.60
2022-07-25T19:03:37.815Z,2.22
2022-07-25T19:06:05.496Z,2.08
2022-07-25T19:08:32.865Z,2.05
2022-07-25T19:11:00.101Z,2.47
2022-07-25T19:13:48.337Z,2.10
2022-07-25T19:16:54.821Z,1.90
2022-07-25T19:19:48.796Z,2.53
2022-07-25T19:22:16.335Z,2.00
2022-07-25T19:24:44.108Z,2.25
2022-07-25T19:27:11.488Z,2.70
2022-07-25T19:29:38.646Z,2.20
2022-07-25T19:32:07.135Z,2.10
2022-07-25T19:34:39.659Z,2.90
2022-07-25T19:37:59.670Z,1.90
2022-07-25T19:40:33.864Z,2.63
2022-07-25T19:43:29.077Z,1.70
2022-07-25T19:45:56.144Z,1.80
2022-07-25T19:48:23.990Z,2.20
2022-07-25T19:50:52.397Z,1.73
2022-07-25T19:53:26.805Z,1.67
2022-07-25T19:55:55.535Z,2.08
2022-07-25T19:58:22.505Z,1.38
2022-07-25T20:00:49.557Z,1.48
2022-07-25T20:03:16.593Z,1.70
2022-07-25T20:05:50.443Z,1.20
2022-07-25T20:08:18.756Z,1.90
2022-07-25T20:10:45.808Z,1.98
2022-07-25T20:13:15.228Z,1.60
2022-07-25T20:15:42.317Z,1.85
2022-07-25T20:18:09.275Z,1.58
2022-07-25T20:20:36.334Z,1.63
2022-07-25T20:23:04.562Z,1.20
2022-07-25T20:25:31.746Z,1.10
2022-07-25T20:27:59.940Z,1.27
2022-07-25T20:30:31.537Z,1.33
2022-07-25T20:33:01.599Z,2.00
2022-07-25T20:35:35.183Z,1.38
2022-07-25T20:38:02.680Z,1.63
2022-07-25T20:40:39.192Z,1.55
2022-07-25T20:43:09.225Z,1.15
2022-07-25T20:45:36.798Z,1.58
2022-07-25T20:48:05.094Z,1.52
2022-07-25T20:50:32.461Z,1.45
2022-07-25T20:52:59.395Z,0.95
2022-07-25T20:55:28.435Z,1.45
2022-07-25T20:57:55.484Z,1.15
2022-07-25T21:00:25.666Z,1.48
2022-07-25T21:02:52.867Z,1.00
2022-07-25T21:05:21.111Z,1.40
2022-07-25T21:07:48.178Z,1.08
2022-07-25T21:10:15.363Z,1.27
2022-07-25T21:12:42.556Z,1.25
2022-07-25T21:15:10.234Z,1.40
2022-07-25T21:17:37.435Z,1.05
2022-07-25T21:20:06.075Z,1.23
2022-07-25T21:22:33.088Z,1.27
2022-07-25T21:25:00.108Z,1.88
2022-07-25T21:27:28.203Z,1.00
2022-07-25T21:29:55.231Z,0.82
2022-07-25T21:32:23.228Z,1.20
2022-07-25T21:34:50.758Z,1.33
2022-07-25T21:37:18.567Z,1.05
2022-07-25T21:39:45.647Z,0.90
2022-07-25T21:42:12.662Z,1.08
2022-07-25T21:44:41.463Z,1.50
2022-07-25T21:47:09.771Z,1.27
2022-07-25T21:49:56.248Z,1.10
2022-07-25T21:52:30.140Z,1.00
2022-07-25T21:55:03.824Z,1.35
2022-07-25T21:57:31.525Z,1.02
2022-07-25T21:59:58.607Z,1.02
2022-07-25T22:02:25.882Z,1.27
2022-07-25T22:04:52.973Z,1.20
2022-07-25T22:07:20.131Z,1.40
2022-07-25T22:09:47.146Z,1.05
2022-07-25T22:12:15.147Z,1.33
2022-07-25T22:14:42.319Z,1.30
2022-07-25T22:17:09.345Z,1.58
2022-07-25T22:19:36.433Z,1.40
2022-07-25T22:22:06.775Z,1.10
2022-07-25T22:24:34.139Z,1.27
2022-07-25T22:27:01.594Z,1.25
2022-07-25T22:29:28.771Z,0.95
2022-07-25T22:31:55.849Z,1.17
2022-07-25T22:34:22.938Z,1.02
2022-07-25T22:36:49.976Z,1.02
2022-07-25T22:39:17.111Z,0.90
2022-07-25T22:41:44.629Z,1.02
2022-07-25T22:44:11.635Z,1.08
2022-07-25T22:46:38.617Z,1.00
2022-07-25T22:49:06.556Z,1.30
2022-07-25T22:51:34.203Z,1.45
2022-07-25T22:54:01.539Z,1.33
2022-07-25T22:56:29.367Z,1.60
2022-07-25T22:58:56.751Z,1.30
2022-07-25T23:01:24.009Z,1.00
2022-07-25T23:03:51.511Z,1.02
2022-07-25T23:06:21.389Z,1.33
2022-07-25T23:08:48.768Z,1.27
2022-07-25T23:11:16.241Z,1.02
2022-07-25T23:13:43.214Z,0.80
2022-07-25T23:16:10.690Z,1.10
2022-07-25T23:18:38.349Z,1.00
2022-07-25T23:21:05.967Z,1.38
2022-07-25T23:23:33.127Z,0.88
2022-07-25T23:26:00.111Z,0.80
2022-07-25T23:28:27.222Z,1.10
2022-07-25T23:30:54.175Z,1.00
2022-07-25T23:33:24.479Z,0.80
2022-07-25T23:35:53.758Z,0.77
2022-07-25T23:38:21.655Z,0.75
2022-07-25T23:40:49.680Z,0.63
2022-07-25T23:43:55.543Z,0.70
2022-07-25T23:46:05.007Z,0.90
2022-07-25T23:48:33.448Z,0.70
2022-07-25T23:51:00.454Z,1.02
2022-07-25T23:53:27.448Z,1.08
2022-07-25T23:55:54.470Z,0.70
2022-07-25T23:58:21.444Z,1.13
